Kezdőlap
METAR-TAF:

METAR-TAF

Repülőterek :

Taiyuan, Kína

földrajzi szélesség: 37-47N, földrajzi hosszúság: 112-33E, magasság: 779 m

Jelenlegi meteorológiai megfigyelések

A jelentés 24 perccel ezelõtt készült, 08:00 UTC
Keleti szél 14 kt
Hőmérséklet 4°C
Páratartalom 52%
Légköri nyomás 1023 hPa
Látótávolság: 4000 m
Száraz légköri homály

METAR: ZBYN 280800Z 10007MPS 4000 HZ NSC 04/M05 Q1023 BECMG TL0930 2500

Idő: 16:24 (08:24 UTC)

Előrejelzés

A jelentés 5 órával és 23 perccel ezelõtt készült, 03:01 UTC
Az előrejelzés 28-én 06 óra UTC és 29-én 06 óra UTC között érvényes
Keleti szél 8 kt
Látótávolság: 3000 m
Száraz légköri homály
28-én 21 óra UTC és 29-én 03 óra UTC között ideiglenes
enyhe havazás,

TAF: ZBYN 280301Z 2806/2906 09004MPS 3000 HZ NSC TX08/2807Z TNM04/2822Z TEMPO 2821/2903 -SN

Meteorológiai megfigyelések és előrejelzések több, mint 4000 repülőtéren (METAR és TAF jelentéseket).

A térképen piros és sárga pontok jelzik az elérhető meteorológiai állomásokat.

Mozgassa az egeret a pont fölött, hogy megjelenjen az állomás neve.

Azután kattintson az időjárási megfigyelések és előrejelzések megtekintéséhez.

A térkép megváltoztatása: kattintson a fekete keresztel jelölt zöld gombra ráközelítéshez, a vonallal jelölt zöld gombra távolításhoz, vagy a zöld nyilakra a szomszédos térképek eléréséhez.


METAR-TAF: